createdAt,value
2022-11-24T00:00:01.560Z,1014.13
2022-11-24T00:10:01.043Z,1014.12
2022-11-24T00:20:01.189Z,1014.21
2022-11-24T00:30:00.949Z,1014.18
2022-11-24T00:40:00.134Z,1014.22
2022-11-24T00:50:00.990Z,1014.09
2022-11-24T01:00:01.040Z,1014.09
2022-11-24T01:10:01.050Z,1014.11
2022-11-24T01:20:01.274Z,1014.31
2022-11-24T01:30:00.153Z,1014.39
2022-11-24T01:40:01.006Z,1014.19
2022-11-24T01:50:01.313Z,1014.17
2022-11-24T02:00:00.984Z,1014.52
2022-11-24T02:10:01.039Z,1014.52
2022-11-24T02:20:00.145Z,1014.67
2022-11-24T02:30:01.601Z,1014.62
2022-11-24T02:40:01.224Z,1014.69
2022-11-24T02:50:01.542Z,1014.74
2022-11-24T03:00:00.117Z,1014.72
2022-11-24T03:20:04.481Z,1014.65
2022-11-24T03:30:00.130Z,1014.73
2022-11-24T03:40:00.121Z,1014.95
2022-11-24T03:50:02.135Z,1014.98
2022-11-24T04:00:00.999Z,1014.98
2022-11-24T04:10:01.031Z,1015.22
2022-11-24T04:20:00.952Z,1015.10
2022-11-24T04:30:02.289Z,1015.10
2022-11-24T04:40:00.127Z,1015.10
2022-11-24T04:50:01.556Z,1015.40
2022-11-24T05:00:02.215Z,1015.61
2022-11-24T05:10:01.052Z,1015.71
2022-11-24T05:20:01.247Z,1015.68
2022-11-24T05:30:00.134Z,1015.82
2022-11-24T05:40:00.153Z,1015.89
2022-11-24T05:50:01.618Z,1015.92
2022-11-24T06:00:00.126Z,1016.02
2022-11-24T06:10:01.016Z,1016.04
2022-11-24T06:20:00.181Z,1016.20
2022-11-24T06:30:01.056Z,1016.39
2022-11-24T06:40:02.235Z,1016.52
2022-11-24T06:50:02.377Z,1016.58
2022-11-24T07:00:01.086Z,1016.58
2022-11-24T07:10:01.255Z,1016.63
2022-11-24T07:20:01.255Z,1016.69
2022-11-24T07:30:01.285Z,1016.78
2022-11-24T07:40:00.941Z,1016.90
2022-11-24T07:50:01.069Z,1017.00
2022-11-24T08:00:02.719Z,1017.06
2022-11-24T08:10:01.273Z,1017.01
2022-11-24T08:20:01.269Z,1017.08
2022-11-24T08:30:00.185Z,1017.12
2022-11-24T08:40:01.182Z,1017.11
2022-11-24T08:50:01.312Z,1017.22
2022-11-24T09:00:00.111Z,1017.16
2022-11-24T09:10:01.301Z,1017.24
2022-11-24T09:20:02.588Z,1017.38
2022-11-24T09:30:01.254Z,1017.43
2022-11-24T09:40:01.056Z,1017.37
2022-11-24T09:50:02.217Z,1017.49
2022-11-24T10:00:01.271Z,1017.55
2022-11-24T10:10:01.084Z,1017.58
2022-11-24T10:20:01.009Z,1017.50
2022-11-24T10:30:01.257Z,1017.50
2022-11-24T10:40:01.238Z,1017.57
2022-11-24T10:50:01.265Z,1017.35
2022-11-24T11:00:01.307Z,1017.30
2022-11-24T11:10:01.314Z,1017.33
2022-11-24T11:20:02.442Z,1017.45
2022-11-24T11:40:01.626Z,1017.43
2022-11-24T11:50:01.001Z,1017.50
2022-11-24T12:00:03.946Z,1017.49
2022-11-24T12:10:01.476Z,1017.55
2022-11-24T12:20:00.110Z,1017.57
2022-11-24T12:30:01.339Z,1017.53
2022-11-24T12:40:01.220Z,1017.50
2022-11-24T12:50:01.080Z,1017.55
2022-11-24T13:00:01.002Z,1017.72
2022-11-24T13:10:01.325Z,1017.73
2022-11-24T13:20:00.140Z,1017.74
2022-11-24T13:30:01.110Z,1017.94
2022-11-24T13:40:01.003Z,1018.05
2022-11-24T13:50:01.640Z,1018.18
2022-11-24T14:00:01.544Z,1018.43
2022-11-24T14:20:00.141Z,1018.63
2022-11-24T14:30:01.931Z,1018.74
2022-11-24T14:40:00.112Z,1018.89
2022-11-24T14:50:00.224Z,1019.00
2022-11-24T15:00:03.170Z,1019.05
2022-11-24T15:10:00.214Z,1019.20
2022-11-24T15:20:01.023Z,1019.36
2022-11-24T15:30:01.252Z,1019.41
2022-11-24T15:40:01.043Z,1019.56
2022-11-24T15:50:01.312Z,1019.73
2022-11-24T16:00:01.069Z,1019.82
2022-11-24T16:10:01.456Z,1019.89
2022-11-24T16:20:01.248Z,1020.02
2022-11-24T16:30:02.180Z,1020.04
2022-11-24T16:40:01.265Z,1020.10
2022-11-24T16:50:01.698Z,1020.09
2022-11-24T17:00:01.767Z,1020.08
2022-11-24T17:10:01.314Z,1020.19
2022-11-24T17:20:01.258Z,1020.22
2022-11-24T17:30:01.077Z,1020.38
2022-11-24T17:40:26.572Z,1020.43
2022-11-24T17:50:01.563Z,1020.42
2022-11-24T18:00:01.252Z,1020.52
2022-11-24T18:10:01.028Z,1020.51
2022-11-24T18:20:01.302Z,1020.57
2022-11-24T18:30:01.779Z,1020.83
2022-11-24T18:40:01.245Z,1020.75
2022-11-24T18:50:01.305Z,1020.72
2022-11-24T19:00:01.033Z,1020.84
2022-11-24T19:10:02.177Z,1020.71
2022-11-24T19:20:01.541Z,1020.67
2022-11-24T19:30:01.325Z,1020.82
2022-11-24T19:40:02.368Z,1020.93
2022-11-24T19:50:02.881Z,1021.00
2022-11-24T20:00:02.925Z,1021.13
2022-11-24T20:10:06.189Z,1021.32
2022-11-24T20:20:01.023Z,1021.43
2022-11-24T20:30:01.005Z,1021.55
2022-11-24T20:40:01.073Z,1021.58
2022-11-24T20:50:01.349Z,1021.61
2022-11-24T21:00:00.990Z,1021.54
2022-11-24T21:10:01.259Z,1021.71
2022-11-24T21:20:01.449Z,1021.70
2022-11-24T21:30:01.062Z,1021.74
2022-11-24T21:40:01.515Z,1021.83
2022-11-24T21:50:01.051Z,1021.85
2022-11-24T22:00:01.315Z,1022.01
2022-11-24T22:10:01.259Z,1021.99
2022-11-24T22:20:00.130Z,1022.07
2022-11-24T22:30:01.053Z,1022.16
2022-11-24T22:40:01.216Z,1022.21
2022-11-24T22:50:01.020Z,1022.22
2022-11-24T23:00:01.103Z,1022.23
2022-11-24T23:10:01.219Z,1022.27
2022-11-24T23:20:04.420Z,1022.28
2022-11-24T23:30:00.139Z,1022.25
2022-11-24T23:40:01.305Z,1022.28
2022-11-24T23:50:01.986Z,1022.30
